Sandwich, Canada
Current Conditions -  °F | °C
As of 3:00 PM on Monday 24 Nov 2014 (Local Time) from CYQG Reporting Station
Overcast Overcast  
Wind Chill: 31°   Ceiling: 2500
Heat Index: 43°   Visibility: 15mi
Dew Point: 36°   Wind: 36mph
Humidity: 76%   Direction: 230°SW
Pressure: 29.33"   Gusts: 56mph
Location:  42.28°N, 83.07°W
Report Text: CYQG 242000Z 23031G49KT 15SM OVC025 06/02 A2933 RMK SC8 PRESRR SLP935
Loading
Personal Weather Stations






























Interactive Weather Map New forecast layout! Learn more

10-Day Weather Forecast

Advertisements
Track Severe Weather on mobile